Terminal Aerodrome Forecast
Issued by NWS

Current Version | Previous Version | Text Only | Print | Product List | Glossary Off
Versions: 1 2 3 4 5 6 7 8 9 10 11 12 13 14 15 16 17

000
FTUS41 KPBZ 042324
TAFMGW
TAF
KMGW 042324Z 0500/0524 22006KT P6SM BKN100
     FM050300 20004KT P6SM -SHRA BKN070
     FM050500 VRB02KT 6SM BR OVC060
     FM051400 22006KT 5SM -SHRA BR OVC035=

USA.gov is the U.S. government's official web portal to all federal, state and local government web resources and services.